SAS7301 ENAL-LGSA
Flight info
| Callsign | SAS7301 |
|---|---|
| Flight time | N/A |
| Altitude | 35000 |
| Route | M078F350 OGDI1F OGDIT DCT XANET DCT EBAMU DCT DININ DCT REPKU DCT ELBUX DCT KEMAX DCT POKEN Z491 VAVUN L996 DENKO L616 DESEN DCT MAKAL DCT PATAK DCT PARAK DCT OSVIX DCT RAXAD DCT MAKED UP20 ROPOX UM749 ATV UP169 MANOK MANO2X |
| Aircraft | A320/M-SDE3FGHIRWY/LB1 |
Departure
| Time | 2026-05-01 11:08 |
|---|---|
| Airport | Ålesund Airport (ENAL) |
Arrival
| Time | N/A |
|---|---|
| Airport | Chania International Airport (LGSA) |
| Time | Latitude | Longitude | Altitude | Speed | Heading |
|---|---|---|---|---|---|
| 2026-05-01 10:37 | 62.55898 | 6.11391 | 83 ft | 0 kts | 152° |
| 2026-05-01 10:54 | 62.55908 | 6.11379 | 84 ft | 3 kts | 152° |
| 2026-05-01 10:54 | 62.55923 | 6.11362 | 83 ft | 3 kts | 152° |
| 2026-05-01 10:55 | 62.55934 | 6.11350 | 84 ft | 0 kts | 152° |
| 2026-05-01 10:57 | 62.55932 | 6.11352 | 84 ft | 1 kts | 152° |
| 2026-05-01 10:57 | 62.55936 | 6.11370 | 83 ft | 4 kts | 55° |
| 2026-05-01 10:57 | 62.55999 | 6.11438 | 80 ft | 15 kts | 1° |
| 2026-05-01 10:57 | 62.56054 | 6.11602 | 79 ft | 14 kts | 64° |
| 2026-05-01 10:58 | 62.56094 | 6.11806 | 71 ft | 16 kts | 63° |
| 2026-05-01 10:58 | 62.56145 | 6.12028 | 68 ft | 19 kts | 61° |
| 2026-05-01 10:58 | 62.56263 | 6.12130 | 73 ft | 19 kts | 359° |
| 2026-05-01 10:58 | 62.56318 | 6.12296 | 64 ft | 17 kts | 61° |
| 2026-05-01 10:59 | 62.56380 | 6.12573 | 55 ft | 24 kts | 65° |
| 2026-05-01 10:59 | 62.56444 | 6.12897 | 48 ft | 17 kts | 91° |
| 2026-05-01 10:59 | 62.56475 | 6.13038 | 47 ft | 10 kts | 337° |
| 2026-05-01 10:59 | 62.56464 | 6.12949 | 47 ft | 7 kts | 240° |
| 2026-05-01 11:00 | 62.56456 | 6.12915 | 48 ft | 0 kts | 245° |
| 2026-05-01 11:00 | 62.56429 | 6.12785 | 48 ft | 38 kts | 245° |
| 2026-05-01 11:01 | 62.56268 | 6.12078 | 66 ft | 43 kts | 243° |
| 2026-05-01 11:01 | 62.56173 | 6.11623 | 69 ft | 28 kts | 246° |
| 2026-05-01 11:01 | 62.56104 | 6.11510 | 78 ft | 11 kts | 163° |
| 2026-05-01 11:01 | 62.56062 | 6.11545 | 83 ft | 0 kts | 158° |
| 2026-05-01 11:05 | 62.56061 | 6.11545 | 83 ft | 0 kts | 158° |
| 2026-05-01 11:05 | 62.56062 | 6.11570 | 81 ft | 7 kts | 89° |
| 2026-05-01 11:05 | 62.56080 | 6.11736 | 73 ft | 14 kts | 64° |
| 2026-05-01 11:05 | 62.56124 | 6.11938 | 71 ft | 16 kts | 65° |
| 2026-05-01 11:06 | 62.56208 | 6.12106 | 69 ft | 17 kts | 10° |
| 2026-05-01 11:06 | 62.56305 | 6.12252 | 66 ft | 20 kts | 62° |
| 2026-05-01 11:06 | 62.56378 | 6.12572 | 49 ft | 28 kts | 65° |
| 2026-05-01 11:07 | 62.56471 | 6.13023 | 47 ft | 3 kts | 290° |
| 2026-05-01 11:07 | 62.56459 | 6.12930 | 48 ft | 12 kts | 245° |
| 2026-05-01 11:07 | 62.56344 | 6.12398 | 60 ft | 71 kts | 244° |
| 2026-05-01 11:07 | 62.56058 | 6.11096 | 88 ft | 119 kts | 244° |
| 2026-05-01 11:08 | 62.55650 | 6.09209 | 248 ft | 144 kts | 243° |
| 2026-05-01 11:08 | 62.55236 | 6.07331 | 852 ft | 144 kts | 242° |
| 2026-05-01 11:08 | 62.54328 | 6.03304 | 1733 ft | 162 kts | 238° |
| 2026-05-01 11:09 | 62.53785 | 6.00941 | 1912 ft | 187 kts | 239° |
| 2026-05-01 11:09 | 62.53184 | 5.98253 | 2126 ft | 212 kts | 240° |
| 2026-05-01 11:09 | 62.52516 | 5.95210 | 2497 ft | 234 kts | 240° |
| 2026-05-01 11:10 | 62.51105 | 5.88555 | 4194 ft | 238 kts | 241° |
| 2026-05-01 11:10 | 62.50345 | 5.85451 | 5322 ft | 228 kts | 229° |
| 2026-05-01 11:10 | 62.49045 | 5.83587 | 6137 ft | 233 kts | 197° |
| 2026-05-01 11:10 | 62.47377 | 5.83902 | 6836 ft | 256 kts | 167° |
| 2026-05-01 11:11 | 62.45745 | 5.85683 | 7512 ft | 269 kts | 158° |
| 2026-05-01 11:11 | 62.44150 | 5.87883 | 8193 ft | 273 kts | 156° |
| 2026-05-01 11:11 | 62.42555 | 5.90120 | 9030 ft | 273 kts | 156° |
| 2026-05-01 11:11 | 62.40932 | 5.92222 | 9668 ft | 276 kts | 159° |
| 2026-05-01 11:12 | 62.39247 | 5.94337 | 10272 ft | 285 kts | 159° |
| 2026-05-01 11:12 | 62.37475 | 5.96580 | 10487 ft | 307 kts | 159° |
| 2026-05-01 11:12 | 62.35566 | 5.98978 | 10644 ft | 329 kts | 158° |
| 2026-05-01 11:12 | 62.33540 | 6.01524 | 10998 ft | 343 kts | 158° |
| 2026-05-01 11:13 | 62.31466 | 6.04138 | 11530 ft | 348 kts | 158° |
| 2026-05-01 11:13 | 62.29366 | 6.06780 | 12139 ft | 351 kts | 159° |
| 2026-05-01 11:13 | 62.27247 | 6.09430 | 12676 ft | 353 kts | 159° |
| 2026-05-01 11:13 | 62.25106 | 6.12086 | 13268 ft | 356 kts | 159° |
| 2026-05-01 11:14 | 62.22947 | 6.14751 | 13871 ft | 361 kts | 159° |
| 2026-05-01 11:14 | 62.20751 | 6.17453 | 14424 ft | 366 kts | 159° |
| 2026-05-01 11:14 | 62.18536 | 6.20175 | 14975 ft | 369 kts | 159° |
| 2026-05-01 11:14 | 62.16293 | 6.22923 | 15505 ft | 373 kts | 159° |
| 2026-05-01 11:15 | 62.14028 | 6.25696 | 16042 ft | 377 kts | 159° |
| 2026-05-01 11:15 | 62.11739 | 6.28490 | 16546 ft | 381 kts | 160° |
| 2026-05-01 11:15 | 62.09416 | 6.31315 | 17126 ft | 386 kts | 159° |
| 2026-05-01 11:15 | 62.07104 | 6.34128 | 17674 ft | 389 kts | 159° |
| 2026-05-01 11:16 | 62.04732 | 6.37007 | 18189 ft | 394 kts | 159° |
| 2026-05-01 11:16 | 62.02339 | 6.39911 | 18684 ft | 397 kts | 159° |
| 2026-05-01 11:16 | 61.99930 | 6.42836 | 19204 ft | 400 kts | 158° |
| 2026-05-01 11:16 | 61.97506 | 6.45770 | 19764 ft | 403 kts | 159° |
| 2026-05-01 11:17 | 61.95050 | 6.48733 | 20283 ft | 406 kts | 159° |
| 2026-05-01 11:17 | 61.92584 | 6.51701 | 20808 ft | 409 kts | 159° |
| 2026-05-01 11:17 | 61.90939 | 6.53679 | 21129 ft | 411 kts | 159° |
| 2026-05-01 11:17 | 61.87603 | 6.57678 | 21691 ft | 414 kts | 159° |
| 2026-05-01 11:18 | 61.85903 | 6.59708 | 22056 ft | 416 kts | 159° |
| 2026-05-01 11:18 | 61.83409 | 6.62689 | 22497 ft | 419 kts | 158° |
| 2026-05-01 11:18 | 61.80856 | 6.65891 | 22936 ft | 423 kts | 156° |
| 2026-05-01 11:18 | 61.78351 | 6.69207 | 23380 ft | 427 kts | 155° |
| 2026-05-01 11:19 | 61.75847 | 6.72618 | 23799 ft | 430 kts | 155° |
| 2026-05-01 11:19 | 61.73370 | 6.76015 | 24150 ft | 430 kts | 155° |
| 2026-05-01 11:19 | 61.70856 | 6.79438 | 24505 ft | 432 kts | 155° |
| 2026-05-01 11:19 | 61.68312 | 6.82852 | 24838 ft | 434 kts | 156° |
| 2026-05-01 11:20 | 61.65753 | 6.86238 | 25203 ft | 435 kts | 156° |
| 2026-05-01 11:20 | 61.63180 | 6.89617 | 25580 ft | 437 kts | 156° |
| 2026-05-01 11:20 | 61.60593 | 6.92999 | 25882 ft | 438 kts | 156° |
| 2026-05-01 11:20 | 61.57993 | 6.96385 | 26188 ft | 440 kts | 156° |
| 2026-05-01 11:21 | 61.55387 | 6.99782 | 26377 ft | 442 kts | 156° |
| 2026-05-01 11:21 | 61.52773 | 7.03196 | 26722 ft | 444 kts | 156° |
| 2026-05-01 11:21 | 61.50156 | 7.06667 | 27041 ft | 448 kts | 154° |
| 2026-05-01 11:21 | 61.47571 | 7.10348 | 27353 ft | 452 kts | 152° |
| 2026-05-01 11:22 | 61.45008 | 7.14204 | 27700 ft | 455 kts | 151° |
| 2026-05-01 11:22 | 61.42453 | 7.18144 | 28065 ft | 455 kts | 150° |
| 2026-05-01 11:22 | 61.39911 | 7.22074 | 28466 ft | 454 kts | 150° |
| 2026-05-01 11:22 | 61.37368 | 7.25961 | 28889 ft | 453 kts | 151° |
| 2026-05-01 11:23 | 61.34823 | 7.29789 | 29319 ft | 451 kts | 151° |
| 2026-05-01 11:23 | 61.32267 | 7.33575 | 29822 ft | 450 kts | 152° |
| 2026-05-01 11:23 | 61.29712 | 7.37317 | 30250 ft | 449 kts | 152° |
| 2026-05-01 11:23 | 61.27153 | 7.41043 | 30643 ft | 448 kts | 152° |
| 2026-05-01 11:24 | 61.24608 | 7.44743 | 31044 ft | 447 kts | 152° |
| 2026-05-01 11:24 | 61.22061 | 7.48442 | 31434 ft | 446 kts | 152° |
| 2026-05-01 11:24 | 61.17029 | 7.55765 | 32193 ft | 444 kts | 152° |
| 2026-05-01 11:25 | 61.14500 | 7.59444 | 32590 ft | 443 kts | 152° |
| 2026-05-01 11:25 | 61.09468 | 7.66752 | 33315 ft | 440 kts | 152° |
| 2026-05-01 11:25 | 61.06963 | 7.70385 | 33728 ft | 439 kts | 152° |
| 2026-05-01 11:26 | 61.04470 | 7.73995 | 34106 ft | 437 kts | 152° |
| 2026-05-01 11:26 | 60.99490 | 7.81158 | 34657 ft | 436 kts | 152° |
| 2026-05-01 11:26 | 60.97001 | 7.84718 | 34911 ft | 436 kts | 152° |
| 2026-05-01 11:27 | 60.94505 | 7.88283 | 35112 ft | 436 kts | 152° |
| 2026-05-01 11:27 | 60.92003 | 7.91851 | 35222 ft | 438 kts | 152° |
| 2026-05-01 11:27 | 60.89484 | 7.95435 | 35234 ft | 444 kts | 152° |
| 2026-05-01 11:28 | 60.84338 | 8.02724 | 35249 ft | 453 kts | 152° |
| 2026-05-01 11:28 | 60.79144 | 8.10090 | 35227 ft | 454 kts | 152° |
| 2026-05-01 11:29 | 60.71369 | 8.21080 | 35240 ft | 453 kts | 152° |
| 2026-05-01 11:30 | 60.63570 | 8.31985 | 35254 ft | 456 kts | 152° |
| 2026-05-01 11:30 | 60.58332 | 8.39289 | 35271 ft | 457 kts | 152° |
| 2026-05-01 11:31 | 60.53087 | 8.46581 | 35257 ft | 457 kts | 152° |
| 2026-05-01 11:31 | 60.47832 | 8.53851 | 35259 ft | 457 kts | 152° |
| 2026-05-01 11:32 | 60.42577 | 8.61084 | 35252 ft | 456 kts | 152° |
| 2026-05-01 11:32 | 60.37318 | 8.68281 | 35247 ft | 456 kts | 152° |
| 2026-05-01 11:33 | 60.32052 | 8.75456 | 35258 ft | 456 kts | 153° |
| 2026-05-01 11:33 | 60.26764 | 8.82552 | 35252 ft | 457 kts | 153° |
| 2026-05-01 11:34 | 60.21447 | 8.89592 | 35235 ft | 457 kts | 153° |
| 2026-05-01 11:34 | 60.16130 | 8.96621 | 35237 ft | 458 kts | 153° |
| 2026-05-01 11:35 | 60.10819 | 9.03645 | 35226 ft | 457 kts | 153° |
| 2026-05-01 11:35 | 60.05504 | 9.10653 | 35225 ft | 457 kts | 153° |
| 2026-05-01 11:36 | 60.00180 | 9.17623 | 35239 ft | 457 kts | 153° |
| 2026-05-01 11:36 | 59.94854 | 9.24571 | 35240 ft | 457 kts | 153° |
| 2026-05-01 11:37 | 59.89569 | 9.31442 | 35224 ft | 457 kts | 153° |
| 2026-05-01 11:37 | 59.84238 | 9.38342 | 35225 ft | 457 kts | 153° |
| 2026-05-01 11:38 | 59.78911 | 9.45219 | 35230 ft | 457 kts | 152° |
| 2026-05-01 11:38 | 59.73581 | 9.52077 | 35239 ft | 456 kts | 152° |
| 2026-05-01 11:39 | 59.68254 | 9.58911 | 35247 ft | 456 kts | 153° |
| 2026-05-01 11:39 | 59.62926 | 9.65704 | 35248 ft | 455 kts | 153° |
| 2026-05-01 11:40 | 59.57592 | 9.72468 | 35261 ft | 455 kts | 153° |
| 2026-05-01 11:40 | 59.52255 | 9.79213 | 35243 ft | 455 kts | 153° |
| 2026-05-01 11:41 | 59.46964 | 9.85887 | 35226 ft | 456 kts | 152° |
| 2026-05-01 11:41 | 59.41612 | 9.92625 | 35255 ft | 457 kts | 152° |
| 2026-05-01 11:42 | 59.36252 | 9.99331 | 35266 ft | 457 kts | 153° |
| 2026-05-01 11:42 | 59.30873 | 10.05991 | 35276 ft | 457 kts | 153° |
| 2026-05-01 11:43 | 59.25396 | 10.12264 | 35286 ft | 455 kts | 156° |
| 2026-05-01 11:43 | 59.19843 | 10.18222 | 35268 ft | 455 kts | 156° |
| 2026-05-01 11:44 | 59.11534 | 10.27199 | 35282 ft | 455 kts | 155° |
| 2026-05-01 11:44 | 59.06017 | 10.33279 | 35265 ft | 456 kts | 155° |
| 2026-05-01 11:45 | 59.01383 | 10.38352 | 35274 ft | 456 kts | 155° |
| 2026-05-01 11:45 | 58.95916 | 10.44291 | 35272 ft | 456 kts | 155° |
| 2026-05-01 11:46 | 58.90512 | 10.50137 | 35283 ft | 456 kts | 155° |
| 2026-05-01 11:46 | 58.85132 | 10.55930 | 35278 ft | 456 kts | 155° |
| 2026-05-01 11:47 | 58.80012 | 10.61422 | 35306 ft | 455 kts | 155° |
| 2026-05-01 11:47 | 58.75088 | 10.66926 | 35316 ft | 456 kts | 153° |
| 2026-05-01 11:48 | 58.69811 | 10.73024 | 35323 ft | 456 kts | 153° |
| 2026-05-01 11:48 | 58.64366 | 10.79242 | 35308 ft | 456 kts | 153° |
| 2026-05-01 11:49 | 58.58900 | 10.85397 | 35322 ft | 456 kts | 153° |
| 2026-05-01 11:49 | 58.53418 | 10.91529 | 35329 ft | 455 kts | 153° |
| 2026-05-01 11:50 | 58.47951 | 10.97638 | 35334 ft | 455 kts | 153° |
| 2026-05-01 11:50 | 58.42481 | 11.03748 | 35347 ft | 455 kts | 153° |
| 2026-05-01 11:51 | 58.37011 | 11.09811 | 35348 ft | 455 kts | 153° |
| 2026-05-01 11:51 | 58.31571 | 11.15798 | 35352 ft | 455 kts | 153° |
| 2026-05-01 11:52 | 58.26100 | 11.21823 | 35345 ft | 455 kts | 153° |
| 2026-05-01 11:52 | 58.20623 | 11.27843 | 35346 ft | 455 kts | 153° |
| 2026-05-01 11:53 | 58.15135 | 11.33851 | 35357 ft | 456 kts | 153° |
| 2026-05-01 11:53 | 58.09644 | 11.39830 | 35365 ft | 456 kts | 153° |
| 2026-05-01 11:54 | 58.04138 | 11.45808 | 35373 ft | 456 kts | 153° |
| 2026-05-01 11:54 | 57.98643 | 11.51770 | 35381 ft | 456 kts | 153° |
| 2026-05-01 11:55 | 57.93140 | 11.57706 | 35385 ft | 456 kts | 153° |
| 2026-05-01 11:55 | 57.87638 | 11.63613 | 35398 ft | 455 kts | 153° |
| 2026-05-01 11:56 | 57.82144 | 11.69491 | 35405 ft | 454 kts | 153° |
| 2026-05-01 11:56 | 57.76680 | 11.75330 | 35405 ft | 454 kts | 153° |
| 2026-05-01 11:57 | 57.72082 | 11.80227 | 35404 ft | 454 kts | 153° |
| 2026-05-01 11:57 | 57.65699 | 11.86984 | 35402 ft | 454 kts | 153° |
| 2026-05-01 11:58 | 57.60206 | 11.92764 | 35387 ft | 453 kts | 153° |
| 2026-05-01 11:59 | 57.51972 | 12.01446 | 35396 ft | 453 kts | 152° |
| 2026-05-01 11:59 | 57.46534 | 12.07324 | 35388 ft | 452 kts | 151° |
| 2026-05-01 12:00 | 57.38370 | 12.16161 | 35394 ft | 453 kts | 152° |
| 2026-05-01 12:01 | 57.30183 | 12.24874 | 35397 ft | 452 kts | 152° |
| 2026-05-01 12:01 | 57.24723 | 12.30660 | 35401 ft | 452 kts | 152° |
| 2026-05-01 12:02 | 57.19267 | 12.36425 | 35403 ft | 452 kts | 152° |
| 2026-05-01 12:02 | 57.13816 | 12.42180 | 35403 ft | 452 kts | 152° |
| 2026-05-01 12:03 | 57.08392 | 12.47880 | 35405 ft | 452 kts | 152° |
| 2026-05-01 12:03 | 57.02928 | 12.53605 | 35392 ft | 452 kts | 152° |
| 2026-05-01 12:04 | 56.97456 | 12.59314 | 35394 ft | 453 kts | 151° |
| 2026-05-01 12:04 | 56.91976 | 12.65007 | 35414 ft | 452 kts | 152° |
| 2026-05-01 12:05 | 56.86500 | 12.70682 | 35420 ft | 452 kts | 151° |
| 2026-05-01 12:05 | 56.78286 | 12.79168 | 35429 ft | 452 kts | 152° |
| 2026-05-01 12:06 | 56.72809 | 12.84805 | 35430 ft | 452 kts | 152° |
| 2026-05-01 12:06 | 56.67334 | 12.90427 | 35425 ft | 452 kts | 151° |
| 2026-05-01 12:07 | 56.62770 | 12.95080 | 35406 ft | 453 kts | 152° |
| 2026-05-01 12:07 | 56.57256 | 13.00662 | 35413 ft | 453 kts | 151° |
| 2026-05-01 12:08 | 56.51745 | 13.06234 | 35417 ft | 453 kts | 151° |
| 2026-05-01 12:08 | 56.46235 | 13.11803 | 35414 ft | 454 kts | 151° |
| 2026-05-01 12:09 | 56.40721 | 13.17371 | 35397 ft | 454 kts | 151° |
| 2026-05-01 12:09 | 56.35196 | 13.22936 | 35390 ft | 455 kts | 151° |
| 2026-05-01 12:10 | 56.26930 | 13.31191 | 35397 ft | 455 kts | 151° |
| 2026-05-01 12:11 | 56.18596 | 13.39480 | 35391 ft | 456 kts | 151° |
| 2026-05-01 12:11 | 56.13043 | 13.44984 | 35405 ft | 455 kts | 151° |
| 2026-05-01 12:12 | 56.07424 | 13.50204 | 35408 ft | 454 kts | 154° |
| 2026-05-01 12:12 | 56.01730 | 13.55087 | 35403 ft | 454 kts | 154° |
| 2026-05-01 12:13 | 55.96029 | 13.59946 | 35400 ft | 454 kts | 154° |
| 2026-05-01 12:13 | 55.90343 | 13.64880 | 35382 ft | 455 kts | 154° |
| 2026-05-01 12:14 | 55.84652 | 13.69862 | 35356 ft | 457 kts | 153° |
| 2026-05-01 12:14 | 55.78925 | 13.74849 | 35352 ft | 459 kts | 153° |
| 2026-05-01 12:15 | 55.73189 | 13.79796 | 35380 ft | 459 kts | 153° |
| 2026-05-01 12:15 | 55.67481 | 13.84688 | 35371 ft | 459 kts | 153° |
| 2026-05-01 12:16 | 55.61726 | 13.89628 | 35373 ft | 460 kts | 153° |
| 2026-05-01 12:16 | 55.55957 | 13.94567 | 35380 ft | 461 kts | 153° |
| 2026-05-01 12:17 | 55.50192 | 13.99479 | 35400 ft | 459 kts | 153° |
| 2026-05-01 12:17 | 55.44446 | 14.04352 | 35400 ft | 458 kts | 153° |
| 2026-05-01 12:18 | 55.38713 | 14.09210 | 35394 ft | 457 kts | 153° |
| 2026-05-01 12:18 | 55.32983 | 14.14052 | 35392 ft | 456 kts | 153° |
| 2026-05-01 12:19 | 55.28080 | 14.18179 | 35392 ft | 456 kts | 153° |
| 2026-05-01 12:19 | 55.22467 | 14.22884 | 35387 ft | 456 kts | 153° |
| 2026-05-01 12:20 | 55.16766 | 14.27656 | 35386 ft | 457 kts | 153° |
| 2026-05-01 12:20 | 55.11104 | 14.32377 | 35398 ft | 456 kts | 154° |
| 2026-05-01 12:21 | 55.05385 | 14.37120 | 35404 ft | 456 kts | 153° |
| 2026-05-01 12:21 | 54.99755 | 14.41778 | 35398 ft | 457 kts | 153° |
| 2026-05-01 12:22 | 54.94052 | 14.46493 | 35394 ft | 457 kts | 153° |
| 2026-05-01 12:22 | 54.88309 | 14.51224 | 35403 ft | 458 kts | 153° |
| 2026-05-01 12:23 | 54.82617 | 14.55879 | 35405 ft | 457 kts | 155° |
| 2026-05-01 12:23 | 54.76655 | 14.59698 | 35408 ft | 458 kts | 159° |
| 2026-05-01 12:24 | 54.70694 | 14.63370 | 35408 ft | 458 kts | 159° |
| 2026-05-01 12:24 | 54.64722 | 14.67047 | 35410 ft | 458 kts | 159° |
| 2026-05-01 12:25 | 54.55807 | 14.72503 | 35417 ft | 458 kts | 159° |
| 2026-05-01 12:26 | 54.49947 | 14.76070 | 35407 ft | 459 kts | 159° |
| 2026-05-01 12:26 | 54.41061 | 14.81473 | 35414 ft | 459 kts | 159° |
| 2026-05-01 12:27 | 54.32017 | 14.86940 | 35412 ft | 460 kts | 159° |
| 2026-05-01 12:28 | 54.22955 | 14.92314 | 35421 ft | 460 kts | 160° |
| 2026-05-01 12:29 | 54.13841 | 14.97466 | 35425 ft | 460 kts | 160° |
| 2026-05-01 12:29 | 54.04712 | 15.02618 | 35416 ft | 461 kts | 160° |
| 2026-05-01 12:30 | 53.95520 | 15.07602 | 35412 ft | 462 kts | 161° |
| 2026-05-01 12:31 | 53.89382 | 15.10897 | 35411 ft | 463 kts | 160° |
| 2026-05-01 12:31 | 53.83244 | 15.14213 | 35413 ft | 463 kts | 160° |
| 2026-05-01 12:32 | 53.77153 | 15.17513 | 35412 ft | 463 kts | 160° |
| 2026-05-01 12:32 | 53.67942 | 15.22457 | 35402 ft | 463 kts | 160° |
| 2026-05-01 12:33 | 53.61795 | 15.25733 | 35402 ft | 463 kts | 160° |
| 2026-05-01 12:33 | 53.55644 | 15.29003 | 35391 ft | 463 kts | 161° |
| 2026-05-01 12:34 | 53.49496 | 15.32265 | 35389 ft | 463 kts | 160° |
| 2026-05-01 12:34 | 53.43563 | 15.36373 | 35389 ft | 461 kts | 153° |
| 2026-05-01 12:35 | 53.37735 | 15.40867 | 35390 ft | 461 kts | 153° |
| 2026-05-01 12:35 | 53.31901 | 15.45320 | 35389 ft | 461 kts | 153° |
| 2026-05-01 12:36 | 53.26057 | 15.49778 | 35392 ft | 461 kts | 153° |
| 2026-05-01 12:36 | 53.20259 | 15.54210 | 35393 ft | 461 kts | 153° |
| 2026-05-01 12:37 | 53.14409 | 15.58661 | 35385 ft | 462 kts | 153° |
| 2026-05-01 12:37 | 53.08557 | 15.63093 | 35381 ft | 462 kts | 153° |
| 2026-05-01 12:38 | 53.02688 | 15.67510 | 35376 ft | 463 kts | 153° |
| 2026-05-01 12:38 | 52.96811 | 15.71933 | 35379 ft | 463 kts | 153° |
| 2026-05-01 12:39 | 52.90945 | 15.76339 | 35373 ft | 463 kts | 153° |
| 2026-05-01 12:39 | 52.85118 | 15.80707 | 35378 ft | 463 kts | 153° |
| 2026-05-01 12:40 | 52.79241 | 15.85061 | 35387 ft | 463 kts | 154° |
| 2026-05-01 12:40 | 52.73298 | 15.89235 | 35376 ft | 464 kts | 155° |
| 2026-05-01 12:41 | 52.67322 | 15.93331 | 35371 ft | 465 kts | 155° |
| 2026-05-01 12:41 | 52.61358 | 15.97447 | 35377 ft | 465 kts | 154° |
| 2026-05-01 12:42 | 52.55396 | 16.01599 | 35372 ft | 465 kts | 154° |
| 2026-05-01 12:42 | 52.49437 | 16.05746 | 35372 ft | 465 kts | 154° |
| 2026-05-01 12:43 | 52.43472 | 16.09872 | 35375 ft | 465 kts | 154° |
| 2026-05-01 12:43 | 52.37500 | 16.13984 | 35366 ft | 466 kts | 154° |
| 2026-05-01 12:44 | 52.31511 | 16.18092 | 35365 ft | 467 kts | 154° |
| 2026-05-01 12:45 | 52.19547 | 16.26264 | 35370 ft | 468 kts | 154° |
| 2026-05-01 12:45 | 52.13552 | 16.30351 | 35366 ft | 468 kts | 154° |
| 2026-05-01 12:46 | 52.07534 | 16.34442 | 35370 ft | 468 kts | 154° |
| 2026-05-01 12:46 | 52.01529 | 16.38505 | 35398 ft | 468 kts | 154° |
| 2026-05-01 12:47 | 51.95503 | 16.42578 | 35380 ft | 469 kts | 154° |
| 2026-05-01 12:47 | 51.89470 | 16.46642 | 35377 ft | 470 kts | 154° |
| 2026-05-01 12:48 | 51.83429 | 16.50691 | 35371 ft | 470 kts | 154° |
| 2026-05-01 12:48 | 51.77387 | 16.54727 | 35366 ft | 470 kts | 154° |
| 2026-05-01 12:49 | 51.71335 | 16.58768 | 35366 ft | 470 kts | 154° |
| 2026-05-01 12:49 | 51.65283 | 16.62790 | 35367 ft | 470 kts | 154° |
| 2026-05-01 12:50 | 51.59229 | 16.66805 | 35379 ft | 471 kts | 154° |
| 2026-05-01 12:50 | 51.53170 | 16.70808 | 35371 ft | 471 kts | 154° |
| 2026-05-01 12:51 | 51.47111 | 16.74797 | 35364 ft | 472 kts | 154° |
| 2026-05-01 12:52 | 51.38034 | 16.80771 | 35368 ft | 472 kts | 154° |
| 2026-05-01 12:52 | 51.28917 | 16.86722 | 35369 ft | 472 kts | 154° |
| 2026-05-01 12:53 | 51.19783 | 16.92656 | 35388 ft | 473 kts | 154° |
| 2026-05-01 12:54 | 51.13684 | 16.96619 | 35378 ft | 473 kts | 154° |
| 2026-05-01 12:54 | 51.04546 | 17.02555 | 35377 ft | 473 kts | 154° |
| 2026-05-01 12:55 | 50.96413 | 17.07784 | 35370 ft | 473 kts | 154° |
| 2026-05-01 12:56 | 50.90311 | 17.11717 | 35365 ft | 474 kts | 154° |
| 2026-05-01 12:56 | 50.84199 | 17.15638 | 35387 ft | 474 kts | 154° |
| 2026-05-01 12:57 | 50.78077 | 17.19539 | 35384 ft | 474 kts | 153° |
| 2026-05-01 12:57 | 50.68890 | 17.25382 | 35379 ft | 474 kts | 153° |
| 2026-05-01 12:58 | 50.62764 | 17.29264 | 35375 ft | 474 kts | 153° |
| 2026-05-01 12:59 | 50.53571 | 17.35088 | 35574 ft | 474 kts | 153° |
| 2026-05-01 12:59 | 50.50518 | 17.37011 | 35924 ft | 472 kts | 154° |
| 2026-05-01 12:59 | 50.44430 | 17.40833 | 36556 ft | 470 kts | 153° |
| 2026-05-01 13:00 | 50.38395 | 17.44608 | 37102 ft | 469 kts | 153° |
| 2026-05-01 13:00 | 50.35327 | 17.46526 | 37321 ft | 469 kts | 154° |
| 2026-05-01 13:01 | 50.26228 | 17.52175 | 37353 ft | 468 kts | 154° |
| 2026-05-01 13:02 | 50.17201 | 17.57977 | 37350 ft | 467 kts | 153° |
| 2026-05-01 13:07 | 49.50833 | 18.00236 | 37373 ft | 470 kts | 153° |
| 2026-05-01 13:08 | 49.44778 | 18.04027 | 37379 ft | 470 kts | 153° |
| 2026-05-01 13:08 | 49.38713 | 18.07818 | 37375 ft | 470 kts | 153° |
| 2026-05-01 13:09 | 49.32647 | 18.11590 | 37387 ft | 471 kts | 153° |
| 2026-05-01 13:09 | 49.26577 | 18.15357 | 37362 ft | 470 kts | 153° |
| 2026-05-01 13:10 | 49.20773 | 18.19801 | 37365 ft | 465 kts | 145° |
| 2026-05-01 13:10 | 49.15093 | 18.24581 | 37369 ft | 466 kts | 145° |
| 2026-05-01 13:11 | 49.09411 | 18.29336 | 37367 ft | 466 kts | 145° |
| 2026-05-01 13:11 | 49.03722 | 18.34072 | 37360 ft | 466 kts | 146° |
| 2026-05-01 13:12 | 48.98026 | 18.38806 | 37355 ft | 465 kts | 145° |
| 2026-05-01 13:12 | 48.92375 | 18.43501 | 37350 ft | 466 kts | 145° |
| 2026-05-01 13:13 | 48.86692 | 18.48219 | 37347 ft | 466 kts | 145° |
| 2026-05-01 13:13 | 48.80993 | 18.52935 | 37348 ft | 466 kts | 145° |
| 2026-05-01 13:14 | 48.75290 | 18.57639 | 37353 ft | 467 kts | 145° |
| 2026-05-01 13:14 | 48.69578 | 18.62332 | 37376 ft | 467 kts | 145° |
| 2026-05-01 13:15 | 48.63863 | 18.67001 | 37365 ft | 467 kts | 145° |
| 2026-05-01 13:15 | 48.58152 | 18.71678 | 37356 ft | 467 kts | 145° |
| 2026-05-01 13:16 | 48.52447 | 18.76341 | 37349 ft | 466 kts | 145° |
| 2026-05-01 13:16 | 48.46735 | 18.80985 | 37341 ft | 466 kts | 145° |
| 2026-05-01 13:17 | 48.35292 | 18.90243 | 37325 ft | 468 kts | 145° |
| 2026-05-01 13:18 | 48.26674 | 18.97197 | 37320 ft | 469 kts | 145° |
| 2026-05-01 13:18 | 48.20921 | 19.01817 | 37320 ft | 469 kts | 145° |
| 2026-05-01 13:19 | 48.15159 | 19.06439 | 37326 ft | 470 kts | 145° |
| 2026-05-01 13:20 | 48.06466 | 19.13152 | 37350 ft | 476 kts | 153° |
| 2026-05-01 13:20 | 48.00202 | 19.16465 | 37338 ft | 478 kts | 154° |
| 2026-05-01 13:21 | 47.90774 | 19.21384 | 37337 ft | 478 kts | 154° |
| 2026-05-01 13:21 | 47.84496 | 19.24668 | 37339 ft | 478 kts | 154° |
| 2026-05-01 13:22 | 47.78211 | 19.27946 | 37338 ft | 479 kts | 154° |
| 2026-05-01 13:22 | 47.71917 | 19.31215 | 37346 ft | 479 kts | 154° |
| 2026-05-01 13:23 | 47.65615 | 19.34479 | 37339 ft | 480 kts | 154° |
| 2026-05-01 13:23 | 47.59313 | 19.37735 | 37343 ft | 480 kts | 154° |
| 2026-05-01 13:24 | 47.53002 | 19.40978 | 37343 ft | 480 kts | 155° |
| 2026-05-01 13:25 | 47.43538 | 19.45839 | 37342 ft | 480 kts | 154° |
| 2026-05-01 13:25 | 47.37229 | 19.49077 | 37355 ft | 480 kts | 155° |
| 2026-05-01 13:26 | 47.30929 | 19.52296 | 37348 ft | 479 kts | 155° |
| 2026-05-01 13:26 | 47.24616 | 19.55512 | 37342 ft | 480 kts | 155° |
| 2026-05-01 13:27 | 47.18349 | 19.58695 | 37344 ft | 480 kts | 155° |
| 2026-05-01 13:27 | 47.08880 | 19.63497 | 37341 ft | 480 kts | 155° |
| 2026-05-01 13:28 | 46.99411 | 19.68277 | 37328 ft | 479 kts | 155° |
| 2026-05-01 13:29 | 46.86811 | 19.74603 | 37334 ft | 479 kts | 155° |
| 2026-05-01 13:31 | 46.67887 | 19.84053 | 37385 ft | 479 kts | 155° |
| 2026-05-01 13:32 | 46.52146 | 19.91856 | 37335 ft | 478 kts | 155° |
| 2026-05-01 13:33 | 46.36396 | 19.99617 | 37343 ft | 478 kts | 155° |
| 2026-05-01 13:34 | 46.23798 | 20.05809 | 37340 ft | 479 kts | 155° |
| 2026-05-01 13:35 | 46.14414 | 20.10696 | 37344 ft | 474 kts | 149° |
| 2026-05-01 13:36 | 46.05404 | 20.16555 | 37345 ft | 474 kts | 149° |
| 2026-05-01 13:36 | 45.96418 | 20.22350 | 37356 ft | 474 kts | 150° |
| 2026-05-01 13:37 | 45.91381 | 20.25594 | 37350 ft | 474 kts | 150° |
| 2026-05-01 13:37 | 45.84374 | 20.30081 | 37339 ft | 474 kts | 150° |
| 2026-05-01 13:38 | 45.75354 | 20.35848 | 37332 ft | 473 kts | 150° |
| 2026-05-01 13:39 | 45.69347 | 20.39682 | 37358 ft | 473 kts | 152° |
| 2026-05-01 13:39 | 45.63336 | 20.43516 | 37340 ft | 473 kts | 151° |
| 2026-05-01 13:40 | 45.58334 | 20.46697 | 37340 ft | 473 kts | 152° |
| 2026-05-01 13:40 | 45.52311 | 20.50493 | 37336 ft | 473 kts | 152° |
| 2026-05-01 13:41 | 45.46289 | 20.54301 | 37329 ft | 473 kts | 152° |
| 2026-05-01 13:41 | 45.40264 | 20.58113 | 37326 ft | 473 kts | 152° |
| 2026-05-01 13:42 | 45.34233 | 20.61912 | 37335 ft | 474 kts | 152° |
| 2026-05-01 13:42 | 45.28189 | 20.65700 | 37329 ft | 474 kts | 152° |
| 2026-05-01 13:43 | 45.22189 | 20.69451 | 37330 ft | 474 kts | 153° |
| 2026-05-01 13:43 | 45.16159 | 20.73222 | 37321 ft | 474 kts | 153° |
| 2026-05-01 13:44 | 45.10128 | 20.76981 | 37342 ft | 473 kts | 153° |
| 2026-05-01 13:44 | 45.04096 | 20.80724 | 37326 ft | 473 kts | 153° |
| 2026-05-01 13:45 | 44.98066 | 20.84466 | 37317 ft | 473 kts | 154° |
| 2026-05-01 13:45 | 44.92033 | 20.88209 | 37309 ft | 474 kts | 154° |
| 2026-05-01 13:46 | 44.85994 | 20.91947 | 37306 ft | 473 kts | 154° |
| 2026-05-01 13:46 | 44.79956 | 20.95669 | 37326 ft | 473 kts | 154° |
| 2026-05-01 13:47 | 44.73918 | 20.99376 | 37308 ft | 473 kts | 154° |
| 2026-05-01 13:47 | 44.67881 | 21.03070 | 37307 ft | 473 kts | 154° |
| 2026-05-01 13:48 | 44.61876 | 21.06735 | 37303 ft | 474 kts | 154° |
| 2026-05-01 13:48 | 44.55832 | 21.10438 | 37310 ft | 474 kts | 154° |
| 2026-05-01 13:49 | 44.49776 | 21.14140 | 37318 ft | 474 kts | 155° |
| 2026-05-01 13:49 | 44.43725 | 21.17815 | 37313 ft | 474 kts | 155° |
| 2026-05-01 13:50 | 44.37667 | 21.21486 | 37311 ft | 474 kts | 155° |
| 2026-05-01 13:50 | 44.31607 | 21.25126 | 37315 ft | 474 kts | 156° |
| 2026-05-01 13:51 | 44.25443 | 21.28418 | 37316 ft | 475 kts | 159° |
| 2026-05-01 13:51 | 44.19201 | 21.31467 | 37320 ft | 475 kts | 160° |
| 2026-05-01 13:52 | 44.12974 | 21.34539 | 37310 ft | 475 kts | 159° |
| 2026-05-01 13:52 | 44.06772 | 21.37689 | 37313 ft | 474 kts | 159° |
| 2026-05-01 13:53 | 44.00584 | 21.40849 | 37310 ft | 474 kts | 159° |
| 2026-05-01 13:53 | 43.91328 | 21.45537 | 37306 ft | 474 kts | 159° |
| 2026-05-01 13:54 | 43.85125 | 21.48665 | 37315 ft | 474 kts | 159° |
| 2026-05-01 13:54 | 43.78925 | 21.51785 | 37315 ft | 474 kts | 160° |
| 2026-05-01 13:55 | 43.72718 | 21.54888 | 37308 ft | 474 kts | 160° |
| 2026-05-01 13:55 | 43.66512 | 21.57990 | 37306 ft | 474 kts | 160° |
| 2026-05-01 13:56 | 43.60313 | 21.61100 | 37320 ft | 474 kts | 160° |
| 2026-05-01 13:56 | 43.54110 | 21.64209 | 37317 ft | 474 kts | 160° |
| 2026-05-01 13:57 | 43.47897 | 21.67291 | 37307 ft | 474 kts | 160° |
| 2026-05-01 13:57 | 43.41685 | 21.70361 | 37310 ft | 475 kts | 160° |
| 2026-05-01 13:58 | 43.35461 | 21.73438 | 37317 ft | 474 kts | 160° |
| 2026-05-01 13:58 | 43.29244 | 21.76514 | 37319 ft | 475 kts | 160° |
| 2026-05-01 13:59 | 43.23017 | 21.79591 | 37309 ft | 475 kts | 161° |
| 2026-05-01 13:59 | 43.16794 | 21.82657 | 37320 ft | 475 kts | 161° |
| 2026-05-01 14:00 | 43.10607 | 21.85695 | 37297 ft | 476 kts | 161° |
| 2026-05-01 14:00 | 43.04374 | 21.88743 | 37296 ft | 475 kts | 161° |
| 2026-05-01 14:01 | 42.98142 | 21.91786 | 37296 ft | 475 kts | 161° |
| 2026-05-01 14:01 | 42.91927 | 21.94822 | 37300 ft | 474 kts | 161° |
| 2026-05-01 14:02 | 42.85711 | 21.97852 | 37298 ft | 473 kts | 161° |
| 2026-05-01 14:02 | 42.79514 | 22.00862 | 37272 ft | 473 kts | 162° |
| 2026-05-01 14:03 | 42.73346 | 22.03852 | 37274 ft | 473 kts | 162° |
| 2026-05-01 14:03 | 42.67136 | 22.06848 | 37268 ft | 474 kts | 162° |
| 2026-05-01 14:04 | 42.60919 | 22.09853 | 37265 ft | 474 kts | 162° |
| 2026-05-01 14:04 | 42.55720 | 22.12361 | 37266 ft | 474 kts | 162° |
| 2026-05-01 14:05 | 42.48486 | 22.15834 | 37276 ft | 473 kts | 162° |
| 2026-05-01 14:05 | 42.42278 | 22.18809 | 37269 ft | 473 kts | 162° |
| 2026-05-01 14:06 | 42.36076 | 22.21773 | 37258 ft | 473 kts | 163° |
| 2026-05-01 14:06 | 42.29835 | 22.24503 | 37254 ft | 470 kts | 171° |
| 2026-05-01 14:07 | 42.23406 | 22.26054 | 37249 ft | 469 kts | 173° |
| 2026-05-01 14:08 | 42.13764 | 22.28318 | 37245 ft | 469 kts | 173° |
| 2026-05-01 14:08 | 42.07324 | 22.29825 | 37242 ft | 469 kts | 173° |
| 2026-05-01 14:09 | 42.00934 | 22.31321 | 37243 ft | 469 kts | 173° |
| 2026-05-01 14:09 | 41.94504 | 22.32827 | 37232 ft | 469 kts | 173° |
| 2026-05-01 14:10 | 41.88067 | 22.34335 | 37232 ft | 469 kts | 173° |
| 2026-05-01 14:10 | 41.81630 | 22.35839 | 37230 ft | 469 kts | 173° |
| 2026-05-01 14:11 | 41.75199 | 22.37343 | 37218 ft | 469 kts | 174° |
| 2026-05-01 14:11 | 41.65556 | 22.39570 | 37222 ft | 469 kts | 174° |
| 2026-05-01 14:12 | 41.59125 | 22.41060 | 37228 ft | 469 kts | 174° |
| 2026-05-01 14:12 | 41.52702 | 22.42551 | 37217 ft | 469 kts | 174° |
| 2026-05-01 14:13 | 41.47356 | 22.43781 | 37218 ft | 469 kts | 174° |
| 2026-05-01 14:13 | 41.39839 | 22.45506 | 37222 ft | 469 kts | 174° |
| 2026-05-01 14:14 | 41.33400 | 22.46983 | 37215 ft | 469 kts | 175° |
| 2026-05-01 14:14 | 41.27104 | 22.49181 | 37225 ft | 473 kts | 167° |
| 2026-05-01 14:15 | 41.20804 | 22.51745 | 37233 ft | 473 kts | 167° |
| 2026-05-01 14:15 | 41.14515 | 22.54330 | 37219 ft | 473 kts | 167° |
| 2026-05-01 14:16 | 41.08228 | 22.56907 | 37231 ft | 473 kts | 168° |
| 2026-05-01 14:16 | 41.01931 | 22.59459 | 37237 ft | 473 kts | 168° |
| 2026-05-01 14:17 | 40.95637 | 22.61994 | 37239 ft | 473 kts | 168° |
| 2026-05-01 14:17 | 40.89339 | 22.64530 | 37228 ft | 473 kts | 168° |
| 2026-05-01 14:18 | 40.83028 | 22.67080 | 37240 ft | 473 kts | 168° |
| 2026-05-01 14:18 | 40.77785 | 22.69195 | 37245 ft | 474 kts | 168° |
| 2026-05-01 14:19 | 40.70456 | 22.72144 | 37239 ft | 474 kts | 168° |
| 2026-05-01 14:19 | 40.64165 | 22.74670 | 37246 ft | 474 kts | 168° |
| 2026-05-01 14:20 | 40.54692 | 22.78459 | 37254 ft | 474 kts | 168° |
| 2026-05-01 14:21 | 40.48373 | 22.80981 | 37261 ft | 475 kts | 169° |
| 2026-05-01 14:21 | 40.42050 | 22.83495 | 37261 ft | 475 kts | 169° |
| 2026-05-01 14:22 | 40.32567 | 22.87260 | 37253 ft | 474 kts | 168° |
| 2026-05-01 14:22 | 40.26246 | 22.89767 | 37231 ft | 474 kts | 169° |
| 2026-05-01 14:23 | 40.19927 | 22.92265 | 37237 ft | 474 kts | 169° |
| 2026-05-01 14:23 | 40.13695 | 22.94722 | 37232 ft | 475 kts | 169° |
| 2026-05-01 14:24 | 40.07402 | 22.97204 | 37231 ft | 475 kts | 169° |
| 2026-05-01 14:24 | 40.01084 | 22.99690 | 37203 ft | 474 kts | 169° |
| 2026-05-01 14:25 | 39.94756 | 23.02164 | 37215 ft | 474 kts | 169° |
| 2026-05-01 14:25 | 39.88427 | 23.04639 | 37219 ft | 474 kts | 169° |
| 2026-05-01 14:26 | 39.78949 | 23.08354 | 37203 ft | 474 kts | 170° |
| 2026-05-01 14:27 | 39.72622 | 23.10822 | 37215 ft | 474 kts | 171° |
| 2026-05-01 14:27 | 39.67364 | 23.12863 | 37217 ft | 474 kts | 171° |
| 2026-05-01 14:28 | 39.57876 | 23.16551 | 37199 ft | 474 kts | 171° |
| 2026-05-01 14:28 | 39.51549 | 23.19002 | 37210 ft | 474 kts | 171° |
| 2026-05-01 14:29 | 39.45226 | 23.21439 | 37219 ft | 475 kts | 171° |
| 2026-05-01 14:30 | 39.32555 | 23.26324 | 37194 ft | 475 kts | 172° |
| 2026-05-01 14:31 | 39.23053 | 23.29968 | 37208 ft | 475 kts | 172° |
| 2026-05-01 14:31 | 39.16708 | 23.32408 | 37216 ft | 475 kts | 172° |
| 2026-05-01 14:32 | 39.10375 | 23.34835 | 37204 ft | 475 kts | 172° |
| 2026-05-01 14:32 | 39.04070 | 23.37241 | 37210 ft | 475 kts | 172° |
| 2026-05-01 14:33 | 38.97732 | 23.39664 | 37213 ft | 475 kts | 172° |
| 2026-05-01 14:33 | 38.91398 | 23.42075 | 37185 ft | 475 kts | 173° |
| 2026-05-01 14:34 | 38.85018 | 23.44485 | 37195 ft | 474 kts | 173° |
| 2026-05-01 14:34 | 38.78686 | 23.46870 | 37211 ft | 472 kts | 175° |
| 2026-05-01 14:34 | 38.75560 | 23.47504 | 37208 ft | 452 kts | 189° |
| 2026-05-01 14:35 | 38.72429 | 23.47520 | 37214 ft | 449 kts | 191° |
| 2026-05-01 14:35 | 38.66235 | 23.47171 | 37177 ft | 444 kts | 194° |
| 2026-05-01 14:36 | 38.60036 | 23.46812 | 37197 ft | 447 kts | 192° |
| 2026-05-01 14:36 | 38.53806 | 23.46714 | 37207 ft | 449 kts | 191° |
| 2026-05-01 14:37 | 38.47554 | 23.46731 | 37166 ft | 449 kts | 191° |
| 2026-05-01 14:37 | 38.41306 | 23.46777 | 37190 ft | 448 kts | 191° |
| 2026-05-01 14:38 | 38.35066 | 23.46799 | 37202 ft | 448 kts | 191° |
| 2026-05-01 14:38 | 38.28834 | 23.46812 | 37198 ft | 448 kts | 191° |
| 2026-05-01 14:39 | 38.22602 | 23.46818 | 37199 ft | 448 kts | 191° |
| 2026-05-01 14:39 | 38.16376 | 23.46833 | 37174 ft | 448 kts | 191° |
| 2026-05-01 14:40 | 38.10145 | 23.46846 | 37185 ft | 447 kts | 191° |
| 2026-05-01 14:40 | 38.03919 | 23.46849 | 37160 ft | 447 kts | 191° |
| 2026-05-01 14:41 | 37.97700 | 23.46852 | 37177 ft | 446 kts | 191° |
| 2026-05-01 14:41 | 37.91523 | 23.46863 | 37186 ft | 446 kts | 191° |
| 2026-05-01 14:42 | 37.85322 | 23.46886 | 37184 ft | 446 kts | 191° |
| 2026-05-01 14:42 | 37.79108 | 23.46898 | 37161 ft | 445 kts | 191° |
| 2026-05-01 14:43 | 37.72911 | 23.46916 | 37175 ft | 445 kts | 191° |
| 2026-05-01 14:43 | 37.66758 | 23.46922 | 37171 ft | 444 kts | 191° |
| 2026-05-01 14:44 | 37.60576 | 23.46940 | 37132 ft | 444 kts | 191° |
| 2026-05-01 14:44 | 37.51317 | 23.46963 | 37151 ft | 443 kts | 191° |